createdAt,value
2023-03-23T15:59:53.932Z,14.20
2023-03-23T16:04:58.213Z,14.36
2023-03-23T16:10:01.140Z,14.47
2023-03-23T16:15:04.164Z,14.48
2023-03-23T16:20:19.555Z,13.91
2023-03-23T16:25:22.582Z,14.06
2023-03-23T16:30:27.117Z,13.61
2023-03-23T16:35:31.643Z,13.76
2023-03-23T16:40:34.896Z,13.56
2023-03-23T16:45:38.341Z,13.44
2023-03-23T16:50:43.330Z,13.51
2023-03-23T16:55:48.443Z,13.49
2023-03-23T17:00:53.542Z,13.32
2023-03-23T17:05:57.652Z,13.29
2023-03-23T17:11:00.740Z,13.06
2023-03-23T17:16:03.721Z,13.05
2023-03-23T17:21:08.535Z,13.00
2023-03-23T17:26:11.497Z,13.19
2023-03-23T17:31:14.339Z,13.16
2023-03-23T17:36:18.653Z,13.19
2023-03-23T17:41:21.745Z,13.28
2023-03-23T17:46:24.862Z,13.15
2023-03-23T17:51:29.193Z,13.18
2023-03-23T17:56:31.989Z,13.32
2023-03-23T18:01:34.885Z,13.57
2023-03-23T18:06:39.200Z,13.51
2023-03-23T18:11:42.065Z,13.57
2023-03-23T18:16:44.989Z,13.48
2023-03-23T18:21:49.265Z,13.32
2023-03-23T18:26:52.061Z,13.60
2023-03-23T18:31:54.964Z,13.65
2023-03-23T18:36:59.218Z,13.74
2023-03-23T18:42:02.339Z,13.64
2023-03-23T18:47:05.568Z,13.55
2023-03-23T18:52:09.752Z,13.53
2023-03-23T18:57:12.693Z,13.61
2023-03-23T19:02:18.298Z,13.49
2023-03-23T19:07:22.560Z,13.45
2023-03-23T19:12:25.396Z,13.55
2023-03-23T19:17:28.280Z,13.54
2023-03-23T19:22:32.819Z,13.38
2023-03-23T19:32:41.166Z,13.20
2023-03-23T19:37:46.367Z,13.08
2023-03-23T19:42:49.202Z,13.00
2023-03-23T19:47:52.221Z,12.93
2023-03-23T19:52:58.390Z,13.05
2023-03-23T19:58:03.113Z,13.19
2023-03-23T20:03:06.307Z,13.18
2023-03-23T20:08:11.122Z,13.20
2023-03-23T20:13:14.073Z,13.14
2023-03-23T20:18:18.794Z,12.81
2023-03-23T20:23:23.106Z,12.98
2023-03-23T20:28:25.999Z,13.19
2023-03-23T20:33:30.526Z,13.21
2023-03-23T20:38:35.592Z,13.07
2023-03-23T20:43:39.232Z,13.16
2023-03-23T20:48:42.747Z,13.02
2023-03-23T20:53:48.434Z,13.00
2023-03-23T20:58:51.225Z,12.95
2023-03-23T21:03:54.390Z,12.77
2023-03-23T21:08:59.304Z,12.76
2023-03-23T21:14:02.470Z,12.90
2023-03-23T21:19:06.176Z,12.86
2023-03-23T21:24:11.978Z,12.79
2023-03-23T21:29:15.417Z,12.74
2023-03-23T21:34:18.390Z,12.97
2023-03-23T21:39:22.604Z,12.82
2023-03-23T21:44:25.512Z,12.97
2023-03-23T21:49:28.863Z,12.84
2023-03-23T21:54:34.323Z,13.12
2023-03-23T21:59:37.173Z,13.17
2023-03-23T22:04:40.002Z,13.12
2023-03-23T22:09:44.891Z,13.01
2023-03-23T22:14:47.895Z,13.05
2023-03-23T22:19:51.240Z,13.08
2023-03-23T22:24:55.471Z,12.76
2023-03-23T22:29:58.351Z,12.62
2023-03-23T22:35:01.263Z,12.89
2023-03-23T22:40:07.149Z,12.63
2023-03-23T22:45:10.437Z,12.75
2023-03-23T22:50:13.401Z,12.71
2023-03-23T22:55:17.932Z,12.72
2023-03-23T23:00:20.896Z,12.79
2023-03-23T23:05:23.745Z,12.62
2023-03-23T23:10:28.015Z,12.44
2023-03-23T23:15:30.924Z,12.52
2023-03-23T23:20:34.420Z,12.47
2023-03-23T23:25:39.513Z,12.42
2023-03-23T23:30:42.370Z,12.47
2023-03-23T23:35:45.549Z,12.56
2023-03-23T23:40:49.998Z,12.55
2023-03-23T23:45:52.846Z,12.27
2023-03-23T23:50:55.705Z,12.36
2023-03-23T23:56:03.696Z,12.38
